createdAt,value
2023-03-07T00:00:50.441Z,98994.28
2023-03-07T00:03:16.788Z,98987.94
2023-03-07T00:05:43.154Z,98991.50
2023-03-07T00:08:09.449Z,98985.50
2023-03-07T00:10:35.773Z,98979.81
2023-03-07T00:13:02.106Z,98988.75
2023-03-07T00:15:28.425Z,98975.78
2023-03-07T00:17:54.784Z,98977.41
2023-03-07T00:20:21.146Z,98981.63
2023-03-07T00:22:47.491Z,98975.31
2023-03-07T00:25:15.060Z,98978.22
2023-03-07T00:27:41.418Z,98976.44
2023-03-07T00:30:07.769Z,98979.31
2023-03-07T00:32:34.189Z,98978.25
2023-03-07T00:35:00.512Z,98971.22
2023-03-07T00:37:26.819Z,98969.97
2023-03-07T00:39:53.165Z,98958.13
2023-03-07T00:42:19.505Z,98961.09
2023-03-07T00:44:45.810Z,98960.47
2023-03-07T00:47:12.604Z,98955.59
2023-03-07T00:49:38.902Z,98954.16
2023-03-07T00:52:05.226Z,98961.78
2023-03-07T00:54:31.525Z,98956.59
2023-03-07T00:56:57.837Z,98944.44
2023-03-07T00:59:24.136Z,98939.91
2023-03-07T01:01:50.658Z,98929.69
2023-03-07T01:04:17.018Z,98922.88
2023-03-07T01:06:43.350Z,98923.72
2023-03-07T01:09:09.717Z,98928.41
2023-03-07T01:11:36.025Z,98920.44
2023-03-07T01:14:02.413Z,98921.59
2023-03-07T01:16:28.840Z,98922.41
2023-03-07T01:18:55.231Z,98914.94
2023-03-07T01:21:21.555Z,98913.81
2023-03-07T01:23:47.854Z,98909.78
2023-03-07T01:26:14.193Z,98902.00
2023-03-07T01:28:40.643Z,98895.34
2023-03-07T01:31:06.945Z,98890.97
2023-03-07T01:33:33.254Z,98890.16
2023-03-07T01:35:59.677Z,98890.44
2023-03-07T01:38:26.075Z,98888.69
2023-03-07T01:40:52.379Z,98886.91
2023-03-07T01:43:18.689Z,98880.22
2023-03-07T01:45:45.016Z,98868.75
2023-03-07T01:48:11.354Z,98867.63
2023-03-07T01:50:37.665Z,98861.50
2023-03-07T01:53:04.027Z,98856.78
2023-03-07T01:55:30.343Z,98848.84
2023-03-07T01:57:56.678Z,98841.06
2023-03-07T02:00:28.803Z,98848.31
2023-03-07T02:02:55.178Z,98847.38
2023-03-07T02:05:21.501Z,98840.91
2023-03-07T02:07:47.821Z,98837.03
2023-03-07T02:10:14.172Z,98832.66
2023-03-07T02:12:40.551Z,98833.13
2023-03-07T02:15:06.907Z,98820.81
2023-03-07T02:17:33.238Z,98823.41
2023-03-07T02:19:59.678Z,98825.47
2023-03-07T02:22:26.003Z,98825.47
2023-03-07T02:24:52.364Z,98830.69
2023-03-07T02:27:18.669Z,98824.69
2023-03-07T02:29:45.047Z,98814.03
2023-03-07T02:32:11.380Z,98817.91
2023-03-07T02:34:37.728Z,98814.03
2023-03-07T02:37:05.040Z,98817.09
2023-03-07T02:39:31.432Z,98810.47
2023-03-07T02:41:57.783Z,98802.88
2023-03-07T02:44:24.105Z,98802.06
2023-03-07T02:46:50.442Z,98795.09
2023-03-07T02:49:18.119Z,98796.56
2023-03-07T02:51:44.507Z,98781.50
2023-03-07T02:54:10.853Z,98792.03
2023-03-07T02:56:37.196Z,98783.13
2023-03-07T02:59:03.562Z,98782.16
2023-03-07T03:01:29.957Z,98775.34
2023-03-07T03:03:56.305Z,98778.94
2023-03-07T03:06:22.641Z,98773.25
2023-03-07T03:08:49.046Z,98763.38
2023-03-07T03:11:15.355Z,98760.00
2023-03-07T03:13:41.680Z,98756.56
2023-03-07T03:16:08.034Z,98744.59
2023-03-07T03:18:34.423Z,98751.22
2023-03-07T03:21:00.727Z,98747.84
2023-03-07T03:23:27.067Z,98737.00
2023-03-07T03:25:53.396Z,98740.53
2023-03-07T03:28:19.702Z,98733.75
2023-03-07T03:30:46.036Z,98742.81
2023-03-07T03:33:12.343Z,98731.97
2023-03-07T03:35:38.683Z,98736.34
2023-03-07T03:38:05.716Z,98738.13
2023-03-07T03:40:32.027Z,98725.34
2023-03-07T03:42:58.358Z,98731.81
2023-03-07T03:45:24.655Z,98735.03
2023-03-07T03:47:51.214Z,98730.84
2023-03-07T03:50:17.629Z,98723.22
2023-03-07T03:52:45.360Z,98722.72
2023-03-07T03:55:11.759Z,98722.72
2023-03-07T03:57:38.459Z,98715.94
2023-03-07T04:00:05.620Z,98709.12
2023-03-07T04:02:33.462Z,98711.72
2023-03-07T04:04:59.834Z,98712.37
2023-03-07T04:07:29.203Z,98702.53
2023-03-07T04:09:55.527Z,98695.38
2023-03-07T04:12:21.865Z,98699.78
2023-03-07T04:14:48.187Z,98702.53
2023-03-07T04:17:14.500Z,98699.94
2023-03-07T04:19:40.832Z,98689.41
2023-03-07T04:22:07.161Z,98674.66
2023-03-07T04:24:33.501Z,98669.69
2023-03-07T04:26:59.851Z,98669.50
2023-03-07T04:29:26.793Z,98661.88
2023-03-07T04:31:53.170Z,98656.53
2023-03-07T04:34:19.486Z,98659.00
2023-03-07T04:36:45.811Z,98656.06
2023-03-07T04:39:12.129Z,98645.53
2023-03-07T04:41:38.495Z,98645.56
2023-03-07T04:44:04.804Z,98637.78
2023-03-07T04:46:31.143Z,98641.81
2023-03-07T04:48:57.463Z,98648.28
2023-03-07T04:51:23.805Z,98636.81
2023-03-07T04:53:50.229Z,98632.59
2023-03-07T04:56:16.586Z,98631.50
2023-03-07T04:58:42.893Z,98624.53
2023-03-07T05:01:09.831Z,98614.66
2023-03-07T05:03:36.268Z,98605.44
2023-03-07T05:06:02.658Z,98604.94
2023-03-07T05:08:29.053Z,98602.84
2023-03-07T05:10:55.643Z,98609.78
2023-03-07T05:13:21.972Z,98605.78
2023-03-07T05:15:48.328Z,98609.62
2023-03-07T05:18:14.647Z,98604.75
2023-03-07T05:20:43.273Z,98594.56
2023-03-07T05:23:09.598Z,98597.16
2023-03-07T05:25:35.894Z,98608.16
2023-03-07T05:28:02.293Z,98593.28
2023-03-07T05:30:28.637Z,98596.03
2023-03-07T05:32:54.961Z,98594.56
2023-03-07T05:35:24.518Z,98585.50
2023-03-07T05:37:50.947Z,98574.81
2023-03-07T05:40:17.273Z,98575.91
2023-03-07T05:42:43.601Z,98574.78
2023-03-07T05:45:10.001Z,98582.72
2023-03-07T05:47:36.346Z,98582.56
2023-03-07T05:50:02.687Z,98576.25
2023-03-07T05:52:29.191Z,98573.78
2023-03-07T05:54:55.510Z,98580.25
2023-03-07T05:57:21.829Z,98576.53
2023-03-07T05:59:48.202Z,98573.94
2023-03-07T06:02:14.618Z,98580.06
2023-03-07T06:04:40.955Z,98572.44
2023-03-07T06:07:07.306Z,98580.50
2023-03-07T06:09:33.660Z,98576.13
2023-03-07T06:12:00.062Z,98579.03
2023-03-07T06:14:26.407Z,98577.53
2023-03-07T06:16:52.718Z,98585.97
2023-03-07T06:19:19.042Z,98580.00
2023-03-07T06:21:45.359Z,98590.66
2023-03-07T06:24:11.679Z,98580.06
2023-03-07T06:26:38.007Z,98587.03
2023-03-07T06:29:04.306Z,98584.28
2023-03-07T06:31:30.710Z,98588.31
2023-03-07T06:33:57.728Z,98586.25
2023-03-07T06:36:24.176Z,98581.97
2023-03-07T06:38:50.515Z,98578.94
2023-03-07T06:41:16.936Z,98582.31
2023-03-07T06:43:43.326Z,98582.28
2023-03-07T06:46:09.700Z,98590.00
2023-03-07T06:48:36.089Z,98588.09
2023-03-07T06:51:02.406Z,98580.97
2023-03-07T06:53:28.735Z,98578.97
2023-03-07T06:55:55.200Z,98578.16
2023-03-07T06:58:21.526Z,98583.53
2023-03-07T07:00:47.891Z,98582.66
2023-03-07T07:03:14.349Z,98580.63
2023-03-07T07:05:40.777Z,98582.06
2023-03-07T07:08:07.088Z,98573.25
2023-03-07T07:10:33.463Z,98575.06
2023-03-07T07:12:59.854Z,98570.78
2023-03-07T07:15:26.562Z,98580.12
2023-03-07T07:17:52.896Z,98580.06
2023-03-07T07:20:19.254Z,98572.59
2023-03-07T07:22:45.564Z,98570.84
2023-03-07T07:25:11.887Z,98571.38
2023-03-07T07:27:38.219Z,98573.72
2023-03-07T07:30:04.524Z,98563.56
2023-03-07T07:32:30.971Z,98576.59
2023-03-07T07:34:57.834Z,98576.88
2023-03-07T07:37:24.154Z,98580.66
2023-03-07T07:39:50.494Z,98574.50
2023-03-07T07:42:16.817Z,98576.37
2023-03-07T07:44:43.760Z,98578.91
2023-03-07T07:47:10.100Z,98581.63
2023-03-07T07:49:36.466Z,98573.09
2023-03-07T07:52:02.786Z,98571.75
2023-03-07T07:54:29.301Z,98579.25
2023-03-07T07:56:57.584Z,98565.28
2023-03-07T07:59:23.912Z,98570.59
2023-03-07T08:01:50.271Z,98583.97
2023-03-07T08:04:16.594Z,98569.63
2023-03-07T08:06:44.382Z,98568.69
2023-03-07T08:09:10.686Z,98573.69
2023-03-07T08:11:37.020Z,98561.94
2023-03-07T08:14:03.477Z,98565.19
2023-03-07T08:16:29.857Z,98573.63
2023-03-07T08:18:56.335Z,98560.91
2023-03-07T08:21:22.673Z,98564.41
2023-03-07T08:23:49.086Z,98565.84
2023-03-07T08:26:15.515Z,98558.44
2023-03-07T08:28:41.964Z,98546.16
2023-03-07T08:31:08.391Z,98555.81
2023-03-07T08:33:34.718Z,98553.56
2023-03-07T08:36:01.083Z,98549.09
2023-03-07T08:38:27.994Z,98555.75
2023-03-07T08:40:54.349Z,98557.38
2023-03-07T08:43:20.913Z,98547.25
2023-03-07T08:45:47.222Z,98548.19
2023-03-07T08:48:13.584Z,98541.50
2023-03-07T08:50:39.929Z,98540.09
2023-03-07T08:53:06.253Z,98547.94
2023-03-07T08:55:32.590Z,98547.47
2023-03-07T08:57:58.909Z,98548.62
2023-03-07T09:00:25.244Z,98551.25
2023-03-07T09:02:51.691Z,98552.87
2023-03-07T09:05:18.093Z,98543.28
2023-03-07T09:07:44.524Z,98545.59
2023-03-07T09:10:11.819Z,98545.47
2023-03-07T09:12:38.182Z,98551.50
2023-03-07T09:15:04.522Z,98544.56
2023-03-07T09:17:30.872Z,98547.75
2023-03-07T09:19:57.202Z,98538.09
2023-03-07T09:22:23.529Z,98550.56
2023-03-07T09:24:49.853Z,98542.50
2023-03-07T09:27:16.177Z,98535.09
2023-03-07T09:29:42.494Z,98539.19
2023-03-07T09:32:09.204Z,98537.22
2023-03-07T09:34:35.514Z,98523.97
2023-03-07T09:37:01.859Z,98524.06
2023-03-07T09:39:28.201Z,98525.81
2023-03-07T09:41:55.035Z,98526.53
2023-03-07T09:44:21.379Z,98520.13
2023-03-07T09:46:47.699Z,98521.94
2023-03-07T09:49:14.032Z,98520.41
2023-03-07T09:51:40.417Z,98503.47
2023-03-07T09:54:06.911Z,98507.19
2023-03-07T09:56:33.234Z,98501.63
2023-03-07T09:58:59.616Z,98504.53
2023-03-07T10:01:25.942Z,98504.41
2023-03-07T10:03:52.428Z,98501.13
2023-03-07T10:06:18.817Z,98492.19
2023-03-07T10:08:45.157Z,98496.31
2023-03-07T10:11:11.481Z,98491.31
2023-03-07T10:13:37.827Z,98493.16
2023-03-07T10:16:04.161Z,98497.53
2023-03-07T10:18:30.464Z,98501.47
2023-03-07T10:20:57.044Z,98484.69
2023-03-07T10:23:23.382Z,98487.88
2023-03-07T10:25:49.698Z,98496.47
2023-03-07T10:28:16.012Z,98494.16
2023-03-07T10:30:42.348Z,98499.72
2023-03-07T10:33:08.684Z,98492.81
2023-03-07T10:35:38.179Z,98487.78
2023-03-07T10:38:04.522Z,98478.16
2023-03-07T10:40:30.837Z,98488.53
2023-03-07T10:42:57.143Z,98474.75
2023-03-07T10:45:23.633Z,98477.47
2023-03-07T10:47:49.970Z,98470.47
2023-03-07T10:50:16.287Z,98472.34
2023-03-07T10:52:42.602Z,98460.06
2023-03-07T10:55:08.907Z,98456.38
2023-03-07T10:57:35.221Z,98447.44
2023-03-07T11:00:01.530Z,98446.47
2023-03-07T11:02:27.863Z,98450.84
2023-03-07T11:04:54.258Z,98440.47
2023-03-07T11:07:20.649Z,98429.75
2023-03-07T11:09:46.987Z,98435.50
2023-03-07T11:12:13.299Z,98421.66
2023-03-07T11:14:39.665Z,98414.47
2023-03-07T11:17:05.991Z,98415.97
2023-03-07T11:19:32.355Z,98410.31
2023-03-07T11:21:59.811Z,98414.19
2023-03-07T11:24:26.346Z,98402.41
2023-03-07T11:26:52.750Z,98404.78
2023-03-07T11:29:19.094Z,98396.06
2023-03-07T11:31:45.413Z,98395.38
2023-03-07T11:34:11.742Z,98398.91
2023-03-07T11:36:38.081Z,98390.97
2023-03-07T11:39:04.410Z,98391.44
2023-03-07T11:41:30.871Z,98378.88
2023-03-07T11:43:57.243Z,98408.03
2023-03-07T11:46:23.728Z,98389.75
2023-03-07T11:48:50.107Z,98391.75
2023-03-07T11:51:16.437Z,98400.69
2023-03-07T11:53:43.056Z,98386.63
2023-03-07T11:56:09.369Z,98383.47
2023-03-07T11:58:35.690Z,98389.59
2023-03-07T12:01:02.017Z,98387.16
2023-03-07T12:03:28.348Z,98379.38
2023-03-07T12:05:54.714Z,98381.09
2023-03-07T12:08:22.097Z,98387.41
2023-03-07T12:10:48.413Z,98377.75
2023-03-07T12:13:14.752Z,98370.09
2023-03-07T12:15:41.091Z,98359.00
2023-03-07T12:18:07.677Z,98365.94
2023-03-07T12:20:34.033Z,98366.75
2023-03-07T12:23:00.379Z,98349.16
2023-03-07T12:25:26.770Z,98355.94
2023-03-07T12:27:53.106Z,98353.41
2023-03-07T12:30:19.534Z,98350.25
2023-03-07T12:32:46.128Z,98346.69
2023-03-07T12:35:12.512Z,98335.62
2023-03-07T12:37:38.944Z,98336.69
2023-03-07T12:40:05.421Z,98350.09
2023-03-07T12:42:32.187Z,98338.44
2023-03-07T12:44:58.494Z,98337.03
2023-03-07T12:47:24.862Z,98334.34
2023-03-07T12:49:51.226Z,98333.81
2023-03-07T12:52:17.599Z,98331.13
2023-03-07T12:54:44.263Z,98324.41
2023-03-07T12:57:10.601Z,98329.69
2023-03-07T12:59:37.297Z,98326.50
2023-03-07T13:02:03.681Z,98321.94
2023-03-07T13:04:30.052Z,98316.91
2023-03-07T13:06:56.377Z,98319.56
2023-03-07T13:09:22.712Z,98293.91
2023-03-07T13:11:49.055Z,98321.91
2023-03-07T13:14:15.391Z,98318.66
2023-03-07T13:16:41.886Z,98331.06
2023-03-07T13:19:08.281Z,98319.44
2023-03-07T13:21:34.613Z,98302.19
2023-03-07T13:24:01.085Z,98313.59
2023-03-07T13:26:27.420Z,98303.41
2023-03-07T13:28:53.814Z,98308.94
2023-03-07T13:31:20.126Z,98307.47
2023-03-07T13:33:48.118Z,98305.78
2023-03-07T13:36:14.529Z,98297.50
2023-03-07T13:38:40.834Z,98299.78
2023-03-07T13:41:07.156Z,98294.66
2023-03-07T13:43:35.323Z,98295.03
2023-03-07T13:46:01.739Z,98285.69
2023-03-07T13:48:28.294Z,98283.31
2023-03-07T13:50:54.691Z,98279.91
2023-03-07T13:53:21.002Z,98279.84
2023-03-07T13:55:47.420Z,98286.94
2023-03-07T13:58:13.756Z,98273.16
2023-03-07T14:00:40.113Z,98285.97
2023-03-07T14:03:06.452Z,98300.44
2023-03-07T14:05:32.820Z,98283.12
2023-03-07T14:07:59.162Z,98293.63
2023-03-07T14:10:25.570Z,98276.41
2023-03-07T14:12:52.178Z,98295.59
2023-03-07T14:15:18.529Z,98280.66
2023-03-07T14:17:44.917Z,98293.63
2023-03-07T14:20:11.614Z,98287.13
2023-03-07T14:22:37.916Z,98286.47
2023-03-07T14:25:05.056Z,98283.53
2023-03-07T14:27:31.429Z,98282.84
2023-03-07T14:29:57.927Z,98292.75
2023-03-07T14:32:24.369Z,98289.16
2023-03-07T14:34:50.817Z,98295.09
2023-03-07T14:37:17.148Z,98299.06
2023-03-07T14:39:43.471Z,98299.94
2023-03-07T14:42:09.796Z,98301.09
2023-03-07T14:44:36.142Z,98319.69
2023-03-07T14:47:02.552Z,98300.91
2023-03-07T14:49:31.819Z,98300.66
2023-03-07T14:51:58.178Z,98308.06
2023-03-07T14:54:27.587Z,98296.69
2023-03-07T14:56:55.167Z,98298.59
2023-03-07T14:59:28.543Z,98283.06
2023-03-07T15:01:55.824Z,98283.22
2023-03-07T15:04:22.204Z,98291.41
2023-03-07T15:06:48.610Z,98292.44
2023-03-07T15:09:14.911Z,98289.13
2023-03-07T15:11:41.234Z,98281.00
2023-03-07T15:14:07.572Z,98291.66
2023-03-07T15:16:34.482Z,98284.00
2023-03-07T15:19:00.854Z,98281.72
2023-03-07T15:21:27.185Z,98277.72
2023-03-07T15:23:53.999Z,98277.59
2023-03-07T15:26:21.526Z,98279.88
2023-03-07T15:28:47.891Z,98289.16
2023-03-07T15:31:15.454Z,98273.47
2023-03-07T15:33:41.954Z,98291.41
2023-03-07T15:36:08.315Z,98280.81
2023-03-07T15:38:34.685Z,98280.06
2023-03-07T15:41:00.998Z,98287.66
2023-03-07T15:43:28.279Z,98285.06
2023-03-07T15:45:54.688Z,98282.09
2023-03-07T15:48:21.047Z,98282.41
2023-03-07T15:50:47.386Z,98286.22
2023-03-07T15:53:13.710Z,98273.28
2023-03-07T15:55:40.119Z,98286.16
2023-03-07T15:58:06.523Z,98275.62
2023-03-07T16:00:32.982Z,98280.38
2023-03-07T16:02:59.380Z,98285.44
2023-03-07T16:05:25.744Z,98283.81
2023-03-07T16:07:52.382Z,98280.69
2023-03-07T16:10:18.718Z,98287.75
2023-03-07T16:12:46.558Z,98284.31
2023-03-07T16:15:12.913Z,98286.59
2023-03-07T16:17:39.642Z,98280.34
2023-03-07T16:20:05.964Z,98280.34
2023-03-07T16:22:32.393Z,98281.13
2023-03-07T16:24:58.725Z,98280.78
2023-03-07T16:27:28.074Z,98276.09
2023-03-07T16:29:54.588Z,98272.38
2023-03-07T16:32:20.984Z,98271.66
2023-03-07T16:34:48.869Z,98273.81
2023-03-07T16:37:15.234Z,98281.91
2023-03-07T16:39:41.617Z,98283.12
2023-03-07T16:42:07.936Z,98277.97
2023-03-07T16:44:34.270Z,98275.84
2023-03-07T16:47:00.601Z,98280.94
2023-03-07T16:49:26.960Z,98287.22
2023-03-07T16:52:05.265Z,98294.56
2023-03-07T16:54:32.593Z,98287.66
2023-03-07T16:56:58.950Z,98303.84
2023-03-07T16:59:25.263Z,98292.59
2023-03-07T17:01:51.791Z,98299.50
2023-03-07T17:04:18.163Z,98312.59
2023-03-07T17:06:44.745Z,98330.19
2023-03-07T17:09:11.681Z,98337.41
2023-03-07T17:11:38.119Z,98340.22
2023-03-07T17:14:04.418Z,98349.25
2023-03-07T17:16:31.833Z,98346.13
2023-03-07T17:18:59.169Z,98368.88
2023-03-07T17:21:25.488Z,98385.47
2023-03-07T17:23:51.792Z,98374.84
2023-03-07T17:26:18.120Z,98387.03
2023-03-07T17:28:44.464Z,98405.81
2023-03-07T17:31:10.823Z,98407.09
2023-03-07T17:33:37.225Z,98421.91
2023-03-07T17:36:03.628Z,98428.28
2023-03-07T17:38:29.990Z,98437.41
2023-03-07T17:40:56.339Z,98434.38
2023-03-07T17:43:22.725Z,98452.94
2023-03-07T17:45:49.189Z,98456.63
2023-03-07T17:48:16.224Z,98462.78
2023-03-07T17:50:42.568Z,98460.47
2023-03-07T17:53:08.915Z,98464.38
2023-03-07T17:55:35.246Z,98465.50
2023-03-07T17:58:01.586Z,98462.50
2023-03-07T18:00:27.910Z,98473.12
2023-03-07T18:02:54.284Z,98475.38
2023-03-07T18:05:20.705Z,98472.94
2023-03-07T18:07:47.228Z,98474.47
2023-03-07T18:10:13.663Z,98471.66
2023-03-07T18:12:40.930Z,98479.59
2023-03-07T18:15:07.261Z,98478.91
2023-03-07T18:17:47.228Z,98481.16
2023-03-07T18:20:14.551Z,98480.06
2023-03-07T18:22:40.906Z,98478.19
2023-03-07T18:25:07.225Z,98471.19
2023-03-07T18:27:33.589Z,98470.69
2023-03-07T18:29:59.917Z,98472.03
2023-03-07T18:32:28.349Z,98474.75
2023-03-07T18:34:55.584Z,98471.13
2023-03-07T18:37:21.900Z,98477.75
2023-03-07T18:39:50.101Z,98468.97
2023-03-07T18:42:16.454Z,98481.88
2023-03-07T18:44:43.071Z,98486.41
2023-03-07T18:47:10.720Z,98485.59
2023-03-07T18:49:38.448Z,98488.22
2023-03-07T18:52:04.838Z,98487.25
2023-03-07T18:54:31.177Z,98492.13
2023-03-07T18:56:57.540Z,98494.84
2023-03-07T18:59:23.904Z,98493.31
2023-03-07T19:01:50.402Z,98499.75
2023-03-07T19:04:16.827Z,98486.81
2023-03-07T19:06:45.183Z,98490.09
2023-03-07T19:09:15.072Z,98490.66
2023-03-07T19:11:41.439Z,98501.69
2023-03-07T19:14:07.768Z,98504.06
2023-03-07T19:16:34.174Z,98499.94
2023-03-07T19:19:00.530Z,98502.91
2023-03-07T19:21:26.859Z,98492.81
2023-03-07T19:23:53.276Z,98502.78
2023-03-07T19:26:19.634Z,98504.12
2023-03-07T19:28:45.983Z,98508.06
2023-03-07T19:31:12.321Z,98511.00
2023-03-07T19:33:38.676Z,98505.44
2023-03-07T19:36:05.051Z,98500.72
2023-03-07T19:38:31.412Z,98512.44
2023-03-07T19:40:59.149Z,98511.56
2023-03-07T19:43:25.490Z,98514.28
2023-03-07T19:45:53.506Z,98510.22
2023-03-07T19:48:19.949Z,98503.84
2023-03-07T19:50:46.546Z,98506.56
2023-03-07T19:53:12.866Z,98503.12
2023-03-07T19:55:39.192Z,98491.81
2023-03-07T19:58:05.529Z,98497.16
2023-03-07T20:00:31.937Z,98495.97
2023-03-07T20:03:00.137Z,98497.53
2023-03-07T20:05:26.480Z,98495.69
2023-03-07T20:07:52.792Z,98496.00
2023-03-07T20:10:19.501Z,98487.22
2023-03-07T20:12:45.834Z,98495.38
2023-03-07T20:15:12.981Z,98490.16
2023-03-07T20:17:39.293Z,98492.13
2023-03-07T20:20:08.025Z,98501.13
2023-03-07T20:22:34.358Z,98499.16
2023-03-07T20:25:00.665Z,98502.72
2023-03-07T20:27:27.156Z,98493.97
2023-03-07T20:29:53.508Z,98494.72
2023-03-07T20:32:19.832Z,98506.75
2023-03-07T20:34:46.236Z,98507.84
2023-03-07T20:37:12.606Z,98511.38
2023-03-07T20:39:39.218Z,98516.25
2023-03-07T20:42:05.566Z,98516.72
2023-03-07T20:44:31.901Z,98514.91
2023-03-07T20:46:58.230Z,98516.16
2023-03-07T20:49:24.556Z,98514.34
2023-03-07T20:51:50.877Z,98517.44
2023-03-07T20:54:17.253Z,98518.22
2023-03-07T20:56:43.565Z,98526.03
2023-03-07T20:59:10.121Z,98526.56
2023-03-07T21:01:36.502Z,98528.66
2023-03-07T21:04:08.146Z,98528.50
2023-03-07T21:06:34.605Z,98531.28
2023-03-07T21:09:00.981Z,98534.66
2023-03-07T21:11:28.433Z,98536.13
2023-03-07T21:13:54.757Z,98530.94
2023-03-07T21:16:21.141Z,98536.25
2023-03-07T21:18:47.547Z,98537.91
2023-03-07T21:21:13.962Z,98542.44
2023-03-07T21:23:40.492Z,98534.66
2023-03-07T21:26:07.083Z,98542.97
2023-03-07T21:28:33.500Z,98545.06
2023-03-07T21:30:59.896Z,98558.97
2023-03-07T21:33:26.240Z,98549.72
2023-03-07T21:35:52.661Z,98551.00
2023-03-07T21:38:18.993Z,98563.31
2023-03-07T21:40:45.307Z,98564.94
2023-03-07T21:43:11.618Z,98570.31
2023-03-07T21:45:37.986Z,98571.94
2023-03-07T21:48:04.355Z,98567.91
2023-03-07T21:50:30.694Z,98568.63
2023-03-07T21:52:57.096Z,98568.03
2023-03-07T21:55:26.620Z,98582.00
2023-03-07T21:57:53.039Z,98578.06
2023-03-07T22:00:19.626Z,98585.38
2023-03-07T22:02:45.974Z,98586.13
2023-03-07T22:05:12.293Z,98582.06
2023-03-07T22:07:38.611Z,98582.53
2023-03-07T22:10:04.916Z,98585.84
2023-03-07T22:12:31.249Z,98597.66
2023-03-07T22:14:57.620Z,98597.81
2023-03-07T22:17:23.945Z,98605.59
2023-03-07T22:19:50.257Z,98608.66
2023-03-07T22:22:16.565Z,98612.06
2023-03-07T22:24:42.890Z,98606.41
2023-03-07T22:27:09.216Z,98602.19
2023-03-07T22:29:35.517Z,98605.25
2023-03-07T22:32:01.923Z,98612.38
2023-03-07T22:34:28.346Z,98605.22
2023-03-07T22:36:56.333Z,98602.00
2023-03-07T22:39:22.676Z,98612.88
2023-03-07T22:41:48.994Z,98616.13
2023-03-07T22:44:17.409Z,98619.53
2023-03-07T22:46:45.070Z,98628.25
2023-03-07T22:49:11.495Z,98618.88
2023-03-07T22:51:38.008Z,98629.06
2023-03-07T22:54:04.410Z,98639.38
2023-03-07T22:56:30.752Z,98642.28
2023-03-07T22:58:57.154Z,98640.38
2023-03-07T23:01:23.526Z,98632.44
2023-03-07T23:03:49.864Z,98632.44
2023-03-07T23:06:16.178Z,98630.69
2023-03-07T23:08:42.518Z,98637.97
2023-03-07T23:11:09.066Z,98645.53
2023-03-07T23:13:35.608Z,98635.81
2023-03-07T23:16:01.970Z,98637.63
2023-03-07T23:18:28.287Z,98639.09
2023-03-07T23:20:54.600Z,98639.22
2023-03-07T23:23:20.968Z,98650.56
2023-03-07T23:25:47.553Z,98652.97
2023-03-07T23:28:13.892Z,98659.81
2023-03-07T23:30:40.435Z,98659.87
2023-03-07T23:33:06.870Z,98664.31
2023-03-07T23:35:33.253Z,98661.59
2023-03-07T23:37:59.590Z,98673.31
2023-03-07T23:40:25.915Z,98673.81
2023-03-07T23:42:52.263Z,98687.72
2023-03-07T23:45:20.583Z,98692.00
2023-03-07T23:47:48.348Z,98687.31
2023-03-07T23:50:14.658Z,98687.59
2023-03-07T23:52:40.997Z,98691.19
2023-03-07T23:55:10.564Z,98692.25
2023-03-07T23:57:36.890Z,98685.69
